Time;durP1;ratioP1;P1;durP2;ratioP2;P2;SDS_P1;SDS_P2;PMS_P1;PMS_P2;Temp;Humidity;BMP_temperature;BMP_pressure;BME280_temperature;BME280_humidity;BME280_pressure;Samples;Min_cycle;Max_cycle;Signal;HPM_P1;HPM_P2
2021/09/26 00:01:18;;;;;;;9.27;6.22;;;15.30;97.20;;;;;;5029726;28;20048;-66
2021/09/26 00:03:44;;;;;;;9.55;5.15;;;15.30;97.20;;;;;;5023631;28;20072;-66
2021/09/26 00:06:09;;;;;;;9.13;5.10;;;15.30;96.90;;;;;;5025592;28;20063;-66
2021/09/26 00:08:35;;;;;;;9.55;5.18;;;15.30;96.80;;;;;;5023052;28;20496;-66
2021/09/26 00:11:05;;;;;;;12.25;5.13;;;15.30;96.70;;;;;;5025916;28;20083;-68
2021/09/26 00:13:35;;;;;;;7.47;4.70;;;15.30;96.60;;;;;;5024853;28;20095;-67
2021/09/26 00:16:01;;;;;;;9.18;5.00;;;15.30;96.50;;;;;;5025762;28;20036;-67
2021/09/26 00:18:27;;;;;;;8.98;5.10;;;15.30;96.50;;;;;;5022432;28;20025;-67
2021/09/26 00:20:53;;;;;;;8.00;4.75;;;15.30;96.40;;;;;;5021562;28;20632;-67
2021/09/26 00:23:19;;;;;;;10.68;4.97;;;15.30;96.20;;;;;;5030506;28;20109;-68
2021/09/26 00:25:45;;;;;;;8.95;4.68;;;15.30;96.20;;;;;;5022706;28;20108;-65
2021/09/26 00:28:10;;;;;;;12.93;4.95;;;15.30;96.10;;;;;;5030117;28;20045;-66
2021/09/26 00:30:36;;;;;;;9.20;4.90;;;15.20;96.10;;;;;;5024162;28;20029;-66
2021/09/26 00:33:02;;;;;;;8.32;4.68;;;15.30;96.00;;;;;;5022727;28;20033;-67
2021/09/26 00:35:28;;;;;;;6.78;4.45;;;15.30;96.00;;;;;;5039498;28;20037;-67
2021/09/26 00:37:54;;;;;;;7.28;4.25;;;15.30;95.90;;;;;;5024008;28;20048;-67
2021/09/26 00:40:20;;;;;;;7.18;4.30;;;15.30;95.80;;;;;;5024276;28;20033;-65
2021/09/26 00:42:46;;;;;;;10.57;4.32;;;15.30;95.80;;;;;;5021172;28;20029;-67
2021/09/26 00:45:13;;;;;;;8.68;4.65;;;15.20;95.80;;;;;;5022580;28;20029;-67
2021/09/26 00:47:39;;;;;;;8.57;4.53;;;15.30;95.80;;;;;;5024077;28;20412;-66
2021/09/26 00:50:06;;;;;;;8.63;4.05;;;15.30;95.80;;;;;;5025315;28;20192;-66
2021/09/26 00:52:32;;;;;;;8.60;4.43;;;15.20;95.90;;;;;;5026108;28;20029;-67
2021/09/26 00:54:58;;;;;;;7.85;4.60;;;15.20;95.90;;;;;;5026615;28;20034;-67
2021/09/26 00:57:23;;;;;;;10.98;4.63;;;15.20;95.90;;;;;;5025192;28;20099;-67
2021/09/26 00:59:49;;;;;;;8.50;4.90;;;15.20;96.00;;;;;;5025707;28;20021;-67
2021/09/26 01:02:15;;;;;;;7.53;4.53;;;15.20;96.10;;;;;;5022848;28;20491;-65
2021/09/26 01:04:42;;;;;;;10.27;5.07;;;15.10;96.10;;;;;;5026075;28;20113;-65
2021/09/26 01:07:23;;;;;;;9.70;4.63;;;15.20;96.10;;;;;;5026758;28;20021;-67
2021/09/26 01:10:03;;;;;;;9.00;4.40;;;15.20;96.10;;;;;;5025491;28;20052;-66
2021/09/26 01:12:52;;;;;;;10.55;4.95;;;15.30;96.10;;;;;;5023380;28;20056;-67
2021/09/26 01:15:34;;;;;;;10.10;4.80;;;15.30;96.20;;;;;;5018351;28;20431;-66
2021/09/26 01:18:30;;;;;;;7.13;4.90;;;15.30;96.10;;;;;;5023283;28;20492;-67
2021/09/26 01:21:06;;;;;;;10.00;5.65;;;15.30;96.20;;;;;;5020878;28;20041;-65
2021/09/26 01:24:20;;;;;;;11.43;7.15;;;15.40;96.30;;;;;;5022957;28;20033;-67
2021/09/26 01:27:20;;;;;;;12.65;7.22;;;15.40;96.30;;;;;;4978717;28;20042;-67
2021/09/26 01:30:13;;;;;;;12.38;8.15;;;15.40;96.30;;;;;;5022722;28;20038;-67
2021/09/26 01:32:44;;;;;;;12.30;8.13;;;15.50;96.40;;;;;;5025102;28;20036;-66
2021/09/26 01:35:12;;;;;;;14.07;7.60;;;15.50;96.40;;;;;;5026972;28;20026;-66
2021/09/26 01:37:42;;;;;;;9.95;7.65;;;15.50;96.40;;;;;;5023521;28;20091;-66
2021/09/26 01:40:30;;;;;;;13.00;7.72;;;15.50;96.30;;;;;;5022648;28;20028;-65
2021/09/26 01:43:03;;;;;;;10.02;6.82;;;15.50;96.40;;;;;;5021243;28;20021;-64
2021/09/26 01:45:36;;;;;;;12.93;7.35;;;15.50;96.40;;;;;;5026453;28;20502;-67
2021/09/26 01:48:14;;;;;;;12.90;8.45;;;15.50;96.40;;;;;;5023583;28;20033;-67
2021/09/26 01:50:40;;;;;;;14.55;9.35;;;15.60;96.50;;;;;;5025178;28;20052;-67
2021/09/26 01:53:08;;;;;;;13.80;10.80;;;15.50;96.50;;;;;;5029515;28;20041;-67
2021/09/26 01:55:36;;;;;;;15.65;11.43;;;15.50;96.60;;;;;;5025825;28;20037;-65
2021/09/26 01:58:02;;;;;;;14.55;11.40;;;15.50;96.60;;;;;;5023896;28;20163;-66
2021/09/26 02:00:29;;;;;;;17.08;10.82;;;15.50;96.70;;;;;;5023374;28;20286;-65
2021/09/26 02:02:56;;;;;;;15.75;10.13;;;15.50;96.70;;;;;;5018949;28;20469;-68
2021/09/26 02:05:22;;;;;;;11.95;9.05;;;15.50;96.70;;;;;;5022856;28;20037;-66
2021/09/26 02:07:51;;;;;;;15.85;9.43;;;15.60;96.80;;;;;;5024333;28;20037;-67
2021/09/26 02:10:22;;;;;;;12.45;8.77;;;15.60;96.70;;;;;;5031269;28;20036;-66
2021/09/26 02:12:47;;;;;;;;;;;15.60;96.70;;;;;;5020918;28;20359;-65
2021/09/26 02:15:18;;;;;;;13.25;8.10;;;15.60;96.70;;;;;;5023193;28;20079;-67
2021/09/26 02:17:45;;;;;;;13.47;8.60;;;15.60;96.70;;;;;;5024849;28;20550;-67
2021/09/26 02:20:14;;;;;;;12.23;8.45;;;15.60;96.70;;;;;;5024114;28;20083;-67
2021/09/26 02:22:40;;;;;;;12.48;8.30;;;15.60;96.80;;;;;;5019920;28;20427;-66
2021/09/26 02:25:08;;;;;;;13.52;7.70;;;15.60;96.80;;;;;;5032744;28;20032;-67
2021/09/26 02:27:35;;;;;;;11.45;7.65;;;15.60;96.80;;;;;;5022764;28;20033;-67
2021/09/26 02:30:05;;;;;;;10.70;7.95;;;15.60;96.90;;;;;;5031668;28;20033;-65
2021/09/26 02:32:30;;;;;;;13.52;8.48;;;15.60;96.90;;;;;;5022997;28;20048;-66
2021/09/26 02:34:56;;;;;;;11.30;7.78;;;15.60;96.90;;;;;;5027482;28;20037;-66
2021/09/26 02:37:22;;;;;;;13.02;8.52;;;15.60;97.00;;;;;;5026595;28;20065;-66
2021/09/26 02:39:48;;;;;;;14.40;8.00;;;15.60;97.00;;;;;;5022484;28;20022;-66
2021/09/26 02:42:21;;;;;;;12.10;8.30;;;15.60;97.00;;;;;;5019438;28;20029;-64
2021/09/26 02:45:01;;;;;;;10.68;8.00;;;15.60;97.10;;;;;;5021564;28;20025;-65
2021/09/26 02:47:33;;;;;;;12.05;8.10;;;15.60;97.00;;;;;;5024813;28;20036;-67
2021/09/26 02:49:59;;;;;;;12.23;9.05;;;15.60;97.00;;;;;;5030912;28;20049;-67
2021/09/26 02:52:25;;;;;;;15.00;8.50;;;15.60;97.00;;;;;;5030496;28;20484;-66
2021/09/26 02:54:51;;;;;;;11.65;8.85;;;15.60;97.10;;;;;;5028035;28;20033;-66
2021/09/26 02:57:17;;;;;;;11.38;8.43;;;15.60;97.10;;;;;;5031707;28;20270;-65
2021/09/26 02:59:43;;;;;;;12.25;9.27;;;15.50;97.20;;;;;;5023876;28;20033;-66
2021/09/26 03:02:09;;;;;;;14.25;8.75;;;15.50;97.20;;;;;;5025578;28;20111;-66
2021/09/26 03:04:42;;;;;;;13.13;8.75;;;15.50;97.30;;;;;;5042551;28;20496;-65
2021/09/26 03:07:08;;;;;;;12.43;8.82;;;15.50;97.30;;;;;;5028044;28;20034;-65
2021/09/26 03:09:34;;;;;;;12.45;8.23;;;15.50;97.30;;;;;;5026534;28;20067;-65
2021/09/26 03:11:59;;;;;;;13.60;9.52;;;15.50;97.30;;;;;;5033671;28;20549;-66
2021/09/26 03:14:25;;;;;;;12.77;9.20;;;15.50;97.30;;;;;;5024665;28;20022;-67
2021/09/26 03:16:50;;;;;;;12.68;9.18;;;15.50;97.30;;;;;;5026551;28;20029;-66
2021/09/26 03:19:16;;;;;;;13.93;8.50;;;15.50;97.20;;;;;;5023777;28;20017;-66
2021/09/26 03:21:42;;;;;;;11.73;8.05;;;15.60;97.20;;;;;;5026739;28;20107;-66
2021/09/26 03:24:08;;;;;;;12.20;8.48;;;15.60;97.20;;;;;;5035164;28;20429;-66
2021/09/26 03:26:34;;;;;;;11.00;8.75;;;15.60;97.10;;;;;;5028303;28;20116;-66
2021/09/26 03:28:59;;;;;;;11.60;9.15;;;15.50;97.10;;;;;;5037484;28;20067;-66
2021/09/26 03:31:26;;;;;;;16.70;9.55;;;15.60;97.00;;;;;;5030068;28;20030;-66
2021/09/26 03:33:55;;;;;;;11.55;8.35;;;15.60;96.90;;;;;;5032971;28;20484;-66
2021/09/26 03:36:21;;;;;;;12.15;9.07;;;15.60;96.80;;;;;;5031020;28;20021;-67
2021/09/26 03:38:46;;;;;;;12.85;9.25;;;15.60;96.80;;;;;;5029792;28;20037;-64
2021/09/26 03:41:12;;;;;;;10.52;8.70;;;15.60;96.60;;;;;;5020090;28;20044;-66
2021/09/26 03:43:38;;;;;;;12.80;9.10;;;15.60;96.60;;;;;;5026227;28;20551;-66
2021/09/26 03:46:03;;;;;;;13.45;8.38;;;15.60;96.60;;;;;;5025254;28;20033;-67
2021/09/26 03:48:29;;;;;;;10.48;8.32;;;15.60;96.60;;;;;;5024084;28;20044;-64
2021/09/26 03:50:55;;;;;;;12.40;8.55;;;15.60;96.60;;;;;;5035143;28;20030;-65
2021/09/26 03:53:20;;;;;;;11.10;8.50;;;15.60;96.70;;;;;;5026616;28;20033;-67
2021/09/26 03:55:46;;;;;;;14.00;8.50;;;15.60;96.70;;;;;;5033326;28;20036;-67
2021/09/26 03:58:12;;;;;;;12.25;8.85;;;15.70;96.40;;;;;;5023565;28;20107;-67
2021/09/26 04:00:37;;;;;;;13.77;8.05;;;15.60;96.40;;;;;;5022586;28;20120;-66
2021/09/26 04:03:03;;;;;;;14.55;8.70;;;15.60;96.30;;;;;;5031669;28;20030;-65
2021/09/26 04:05:29;;;;;;;11.60;8.75;;;15.60;96.20;;;;;;5027267;28;20104;-68
2021/09/26 04:07:55;;;;;;;12.38;8.88;;;15.70;96.00;;;;;;5026829;28;20033;-67
2021/09/26 04:10:20;;;;;;;11.07;8.65;;;15.70;96.00;;;;;;5024683;28;20160;-66
2021/09/26 04:12:46;;;;;;;10.77;8.63;;;15.70;96.00;;;;;;5022910;28;20061;-67
2021/09/26 04:15:13;;;;;;;13.77;8.95;;;15.70;96.00;;;;;;5019787;28;20051;-65
2021/09/26 04:17:39;;;;;;;13.88;8.65;;;15.60;95.90;;;;;;5025935;28;20504;-66
2021/09/26 04:20:06;;;;;;;13.65;8.98;;;15.70;95.80;;;;;;5024325;28;20080;-64
2021/09/26 04:22:33;;;;;;;12.05;8.18;;;15.70;95.60;;;;;;5020999;28;20028;-64
2021/09/26 04:24:59;;;;;;;12.00;8.60;;;15.60;95.50;;;;;;5024402;28;20033;-64
2021/09/26 04:27:24;;;;;;;14.60;9.00;;;15.50;95.70;;;;;;5017514;28;20420;-64
2021/09/26 04:29:52;;;;;;;11.60;8.70;;;15.50;95.90;;;;;;5025901;28;20029;-63
2021/09/26 04:32:18;;;;;;;10.25;8.77;;;15.40;96.10;;;;;;5029919;28;20044;-64
2021/09/26 04:34:44;;;;;;;13.95;9.02;;;15.40;96.10;;;;;;5035665;28;20488;-63
2021/09/26 04:37:10;;;;;;;13.25;8.93;;;15.50;95.80;;;;;;5028187;28;20036;-64
2021/09/26 04:39:35;;;;;;;11.80;8.95;;;15.40;95.80;;;;;;5021822;28;20104;-63
2021/09/26 04:42:01;;;;;;;14.32;8.93;;;15.40;95.90;;;;;;5021659;28;20040;-64
2021/09/26 04:44:26;;;;;;;12.05;9.70;;;15.30;95.80;;;;;;5024606;28;20356;-61
2021/09/26 04:46:52;;;;;;;13.10;9.20;;;15.30;95.80;;;;;;5025519;28;20220;-63
2021/09/26 04:49:18;;;;;;;11.60;8.70;;;15.20;95.70;;;;;;5030462;28;20068;-63
2021/09/26 04:51:43;;;;;;;12.15;9.02;;;15.10;96.00;;;;;;5021620;28;20297;-63
2021/09/26 04:54:09;;;;;;;11.85;9.27;;;15.10;96.40;;;;;;5031263;28;20384;-61
2021/09/26 04:56:35;;;;;;;14.27;9.02;;;15.10;96.00;;;;;;5031151;28;20063;-61
2021/09/26 04:59:00;;;;;;;12.05;8.77;;;15.20;96.10;;;;;;5032849;28;20025;-61
2021/09/26 05:01:26;;;;;;;14.40;8.52;;;15.10;96.10;;;;;;5017506;28;20036;-60
2021/09/26 05:03:51;;;;;;;12.52;9.10;;;15.10;96.50;;;;;;5030653;28;20024;-62
2021/09/26 05:06:17;;;;;;;13.43;9.13;;;15.30;95.90;;;;;;5025366;28;20041;-62
2021/09/26 05:08:43;;;;;;;14.63;9.52;;;15.30;95.80;;;;;;5033852;28;20345;-62
2021/09/26 05:11:09;;;;;;;15.52;9.18;;;15.30;95.80;;;;;;5025828;28;20040;-61
2021/09/26 05:13:35;;;;;;;11.90;8.63;;;15.30;95.70;;;;;;5019457;28;20385;-61
2021/09/26 05:16:00;;;;;;;12.48;8.75;;;15.40;95.30;;;;;;5024482;28;20082;-63
2021/09/26 05:18:26;;;;;;;13.98;8.77;;;15.40;95.20;;;;;;5023414;28;20071;-61
2021/09/26 05:20:55;;;;;;;12.32;8.95;;;15.50;95.20;;;;;;5033278;28;20034;-63
2021/09/26 05:23:21;;;;;;;11.55;8.98;;;15.50;95.10;;;;;;5020256;28;20561;-63
2021/09/26 05:25:47;;;;;;;12.50;8.55;;;15.50;94.80;;;;;;5023011;28;20032;-62
2021/09/26 05:28:13;;;;;;;11.75;8.38;;;15.60;94.60;;;;;;5021864;28;20040;-63
2021/09/26 05:30:39;;;;;;;11.05;8.30;;;15.50;94.60;;;;;;5035817;28;20037;-62
2021/09/26 05:33:05;;;;;;;11.55;7.80;;;15.60;94.40;;;;;;5034431;28;20032;-62
2021/09/26 05:35:31;;;;;;;12.63;8.15;;;15.60;94.40;;;;;;5034060;28;20056;-62
2021/09/26 05:37:57;;;;;;;11.98;7.85;;;15.60;94.30;;;;;;5022810;28;20166;-63
2021/09/26 05:40:23;;;;;;;10.48;6.85;;;15.50;94.40;;;;;;5019147;28;20014;-62
2021/09/26 05:42:49;;;;;;;10.18;6.72;;;15.40;94.70;;;;;;5022081;28;20044;-61
2021/09/26 05:45:15;;;;;;;16.02;8.18;;;15.30;94.80;;;;;;5023667;28;20021;-63
2021/09/26 05:47:40;;;;;;;11.57;7.38;;;15.20;95.10;;;;;;5021645;28;20041;-62
2021/09/26 05:50:06;;;;;;;11.23;8.38;;;15.10;95.20;;;;;;5019691;28;20083;-63
2021/09/26 05:52:32;;;;;;;15.77;8.40;;;15.10;95.60;;;;;;5022356;28;20087;-63
2021/09/26 05:54:57;;;;;;;13.48;7.80;;;15.20;95.40;;;;;;5022793;28;20026;-62
2021/09/26 05:57:23;;;;;;;13.25;8.05;;;15.10;95.50;;;;;;5024173;28;20107;-62
2021/09/26 05:59:49;;;;;;;13.93;8.23;;;15.10;95.70;;;;;;5022693;28;20036;-62
2021/09/26 06:02:22;;;;;;;12.70;8.23;;;15.00;95.80;;;;;;5025465;28;20021;-61
2021/09/26 06:04:48;;;;;;;13.65;8.38;;;15.00;95.80;;;;;;5032706;28;20055;-63
2021/09/26 06:07:13;;;;;;;11.35;8.27;;;15.00;96.00;;;;;;5029835;28;20053;-63
2021/09/26 06:09:39;;;;;;;13.10;8.18;;;15.10;95.50;;;;;;5028212;28;20037;-63
2021/09/26 06:12:05;;;;;;;12.80;9.00;;;15.10;95.40;;;;;;5021726;28;20043;-63
2021/09/26 06:14:31;;;;;;;11.70;8.25;;;15.20;95.30;;;;;;5016964;28;20038;-63
2021/09/26 06:16:56;;;;;;;12.63;8.90;;;15.10;95.40;;;;;;5028305;28;20075;-62
2021/09/26 06:19:22;;;;;;;10.05;7.82;;;15.10;95.70;;;;;;5024514;28;20378;-61
2021/09/26 06:21:48;;;;;;;12.15;8.15;;;15.10;95.50;;;;;;5019850;28;20076;-61
2021/09/26 06:24:13;;;;;;;11.43;8.32;;;15.10;95.50;;;;;;5031822;28;20300;-63
2021/09/26 06:26:39;;;;;;;12.00;7.57;;;15.20;95.50;;;;;;5022287;28;20083;-60
2021/09/26 06:29:05;;;;;;;10.98;8.35;;;15.30;95.40;;;;;;5022946;28;20037;-62
2021/09/26 06:31:31;;;;;;;13.35;8.30;;;15.30;95.10;;;;;;5021749;28;20040;-61
2021/09/26 06:33:56;;;;;;;13.07;7.78;;;15.30;94.90;;;;;;5018326;28;20476;-62
2021/09/26 06:36:22;;;;;;;12.35;8.02;;;15.30;95.10;;;;;;5035999;28;20377;-62
2021/09/26 06:38:48;;;;;;;13.93;8.48;;;15.40;94.90;;;;;;5020211;28;20037;-63
2021/09/26 06:41:15;;;;;;;12.30;8.45;;;15.60;94.60;;;;;;5027880;28;20029;-60
2021/09/26 06:43:41;;;;;;;10.85;7.88;;;15.60;94.20;;;;;;5020465;28;20033;-62
2021/09/26 06:46:07;;;;;;;11.35;8.30;;;15.70;94.30;;;;;;5024041;28;20055;-63
2021/09/26 06:48:32;;;;;;;10.57;7.70;;;15.80;93.60;;;;;;5031409;28;20021;-63
2021/09/26 06:50:58;;;;;;;12.63;7.25;;;15.90;93.90;;;;;;5021616;28;20398;-61
2021/09/26 06:53:23;;;;;;;11.60;8.02;;;15.90;93.70;;;;;;5020808;28;20026;-62
2021/09/26 06:55:49;;;;;;;12.45;8.13;;;16.00;93.40;;;;;;5022585;28;20230;-62
2021/09/26 06:58:15;;;;;;;13.30;7.70;;;16.10;93.10;;;;;;5019277;28;20577;-62
2021/09/26 07:00:40;;;;;;;10.23;7.82;;;16.10;93.00;;;;;;5021706;28;20491;-62
2021/09/26 07:03:06;;;;;;;11.82;7.10;;;16.00;93.50;;;;;;5020667;28;20188;-61
2021/09/26 07:05:31;;;;;;;9.02;6.47;;;16.10;93.60;;;;;;5017914;28;20088;-63
2021/09/26 07:07:57;;;;;;;9.05;6.90;;;16.10;93.50;;;;;;5017549;28;20029;-60
2021/09/26 07:10:23;;;;;;;10.48;7.25;;;16.20;93.30;;;;;;5016803;28;20639;-63
2021/09/26 07:12:48;;;;;;;12.82;7.53;;;16.10;93.60;;;;;;5021955;28;20484;-62
2021/09/26 07:15:14;;;;;;;10.88;6.80;;;16.20;93.00;;;;;;5020396;28;20037;-63
2021/09/26 07:17:39;;;;;;;10.23;7.00;;;16.30;92.90;;;;;;5020883;28;20188;-61
2021/09/26 07:20:07;;;;;;;12.77;7.38;;;16.40;92.60;;;;;;5020345;28;20165;-62
2021/09/26 07:22:32;;;;;;;11.40;6.95;;;16.50;92.00;;;;;;5020990;28;20032;-65
2021/09/26 07:24:58;;;;;;;12.45;7.22;;;16.60;91.70;;;;;;5023557;28;20029;-64
2021/09/26 07:27:26;;;;;;;10.73;6.55;;;16.70;91.70;;;;;;5022284;28;20496;-65
2021/09/26 07:29:54;;;;;;;9.18;6.18;;;16.70;91.40;;;;;;5019092;28;20429;-64
2021/09/26 07:32:20;;;;;;;9.25;6.72;;;16.80;91.40;;;;;;5021991;28;20025;-65
2021/09/26 07:34:45;;;;;;;9.50;5.88;;;16.80;91.10;;;;;;5024734;28;20037;-65
2021/09/26 07:37:12;;;;;;;10.45;6.00;;;16.90;90.90;;;;;;5016653;28;22165;-64
2021/09/26 07:39:38;;;;;;;8.73;5.78;;;17.00;90.30;;;;;;5023954;28;20120;-63
2021/09/26 07:42:05;;;;;;;9.32;5.88;;;17.10;90.10;;;;;;5025974;28;20029;-64
2021/09/26 07:44:31;;;;;;;7.50;5.88;;;17.10;90.40;;;;;;5029406;28;20053;-65
2021/09/26 07:46:56;;;;;;;8.40;5.80;;;17.10;90.90;;;;;;5025732;28;20068;-65
2021/09/26 07:49:22;;;;;;;7.75;5.38;;;17.50;89.50;;;;;;5032268;28;20028;-63
2021/09/26 07:51:48;;;;;;;9.23;5.25;;;17.40;89.70;;;;;;5026078;28;20025;-63
2021/09/26 07:54:15;;;;;;;8.38;5.28;;;17.50;90.00;;;;;;5035771;28;20095;-65
2021/09/26 07:56:41;;;;;;;7.93;5.50;;;17.60;90.30;;;;;;5048222;28;20021;-65
2021/09/26 07:59:07;;;;;;;7.50;5.30;;;17.70;88.80;;;;;;5021640;28;20084;-65
2021/09/26 08:01:33;;;;;;;7.38;4.93;;;17.90;87.90;;;;;;5024507;28;20109;-64
2021/09/26 08:03:59;;;;;;;9.65;4.97;;;18.00;87.00;;;;;;5027241;28;20048;-65
2021/09/26 08:06:25;;;;;;;9.10;4.88;;;18.10;87.50;;;;;;5041861;28;20053;-66
2021/09/26 08:08:50;;;;;;;7.07;4.95;;;18.20;88.20;;;;;;5039743;28;20063;-66
2021/09/26 08:11:16;;;;;;;7.70;4.75;;;18.40;86.20;;;;;;5032388;28;20034;-65
2021/09/26 08:13:42;;;;;;;7.40;4.75;;;18.60;85.60;;;;;;5022151;28;20041;-65
2021/09/26 08:16:08;;;;;;;6.00;4.28;;;18.70;85.40;;;;;;5023607;28;20037;-63
2021/09/26 08:18:33;;;;;;;6.93;4.25;;;18.80;85.80;;;;;;5027294;28;20025;-66
2021/09/26 08:20:59;;;;;;;6.18;3.83;;;19.00;84.80;;;;;;5024764;28;20079;-65
2021/09/26 08:23:24;;;;;;;5.75;3.88;;;19.30;83.70;;;;;;5028440;28;20223;-63
2021/09/26 08:25:51;;;;;;;7.78;3.90;;;19.50;84.00;;;;;;5029377;28;20131;-65
2021/09/26 08:28:18;;;;;;;6.38;3.70;;;19.60;84.70;;;;;;5024847;28;20947;-65
2021/09/26 08:30:43;;;;;;;5.05;3.20;;;19.80;81.90;;;;;;5026942;28;20037;-66
2021/09/26 08:33:09;;;;;;;6.50;3.63;;;20.00;81.90;;;;;;5025890;28;20099;-65
2021/09/26 08:35:35;;;;;;;5.18;3.10;;;20.20;81.70;;;;;;5026305;28;20032;-65
2021/09/26 08:38:01;;;;;;;5.00;3.05;;;20.40;82.60;;;;;;5025867;28;20033;-65
2021/09/26 08:40:26;;;;;;;5.35;2.83;;;20.50;79.60;;;;;;5023687;28;20343;-66
2021/09/26 08:42:52;;;;;;;6.78;3.25;;;20.60;79.30;;;;;;5021360;28;20424;-64
2021/09/26 08:45:19;;;;;;;4.43;2.75;;;20.70;78.40;;;;;;5024766;28;20218;-66
2021/09/26 08:47:46;;;;;;;4.93;2.67;;;20.70;78.70;;;;;;5022702;28;20442;-65
2021/09/26 08:50:15;;;;;;;5.00;2.58;;;20.90;78.30;;;;;;5028233;28;20025;-65
2021/09/26 08:52:44;;;;;;;4.22;3.00;;;20.90;77.90;;;;;;5025281;28;20303;-64
2021/09/26 08:55:12;;;;;;;5.72;2.80;;;21.20;77.60;;;;;;5029606;28;20472;-65
2021/09/26 08:57:38;;;;;;;3.45;2.40;;;21.10;75.90;;;;;;5041679;28;20056;-65
2021/09/26 09:00:15;;;;;;;4.57;2.60;;;21.30;74.60;;;;;;5026648;28;20376;-66
2021/09/26 09:02:41;;;;;;;5.15;2.88;;;21.50;76.80;;;;;;5025265;28;20099;-66
2021/09/26 09:05:33;;;;;;;6.85;2.92;;;21.40;74.90;;;;;;5023115;28;20037;-65
2021/09/26 09:08:06;;;;;;;4.90;2.70;;;21.50;74.70;;;;;;5027237;28;20036;-65
2021/09/26 09:10:44;;;;;;;4.63;2.30;;;21.40;74.10;;;;;;5030563;28;20124;-64
2021/09/26 09:13:12;;;;;;;4.38;2.60;;;21.50;74.70;;;;;;5023809;28;20504;-64
2021/09/26 09:15:49;;;;;;;4.88;2.53;;;21.40;74.50;;;;;;5028614;28;20076;-66
2021/09/26 09:18:15;;;;;;;6.63;2.47;;;21.70;74.70;;;;;;5022549;28;21791;-63
2021/09/26 09:20:40;;;;;;;3.88;2.60;;;21.80;73.50;;;;;;5024496;28;20383;-66
2021/09/26 09:23:08;;;;;;;4.25;2.65;;;21.70;71.60;;;;;;5028762;28;20336;-66
2021/09/26 09:25:42;;;;;;;3.47;2.22;;;21.90;72.80;;;;;;5039663;28;20073;-66
2021/09/26 09:28:29;;;;;;;5.07;2.75;;;22.20;71.80;;;;;;5027192;28;20098;-65
2021/09/26 09:31:03;;;;;;;5.20;2.97;;;22.00;71.50;;;;;;5034165;28;20439;-66
2021/09/26 09:33:37;;;;;;;3.15;2.35;;;22.20;70.30;;;;;;5026395;28;20045;-63
2021/09/26 09:36:03;;;;;;;3.70;2.58;;;21.80;71.60;;;;;;5025682;28;20068;-65
2021/09/26 09:38:29;;;;;;;5.45;2.85;;;21.60;72.40;;;;;;5026074;28;20555;-65
2021/09/26 09:40:55;;;;;;;3.65;2.38;;;21.80;71.80;;;;;;5032564;28;20025;-64
2021/09/26 09:43:22;;;;;;;5.22;2.13;;;22.20;70.30;;;;;;5019507;28;20053;-66
2021/09/26 09:45:54;;;;;;;4.75;2.90;;;22.20;70.40;;;;;;5024810;28;20477;-65
2021/09/26 09:48:21;;;;;;;4.65;2.40;;;22.30;71.00;;;;;;5026424;28;20112;-65
2021/09/26 09:51:01;;;;;;;4.32;2.45;;;22.70;69.50;;;;;;5027694;28;20034;-65
2021/09/26 09:53:45;;;;;;;6.25;2.55;;;22.50;69.00;;;;;;5023879;28;20416;-66
2021/09/26 09:56:20;;;;;;;4.25;2.53;;;22.50;68.70;;;;;;5022772;28;20029;-66
2021/09/26 09:58:52;;;;;;;3.55;2.47;;;22.50;69.20;;;;;;5033568;28;20029;-65
2021/09/26 10:01:30;;;;;;;4.10;2.40;;;22.90;68.50;;;;;;5031977;28;20106;-65
2021/09/26 10:04:01;;;;;;;5.88;2.78;;;22.60;68.00;;;;;;5026165;28;20041;-63
2021/09/26 10:06:42;;;;;;;3.95;2.58;;;22.50;68.50;;;;;;5039844;28;20021;-64
2021/09/26 10:09:25;;;;;;;6.70;2.72;;;22.50;68.70;;;;;;5033449;28;20235;-65
2021/09/26 10:12:02;;;;;;;3.67;2.28;;;22.80;69.50;;;;;;5020955;28;20048;-65
2021/09/26 10:14:31;;;;;;;4.80;2.60;;;23.00;68.30;;;;;;5019847;28;20452;-65
2021/09/26 10:17:01;;;;;;;4.93;2.67;;;22.70;67.20;;;;;;5022641;28;20022;-66
2021/09/26 10:19:27;;;;;;;3.83;2.50;;;23.00;68.10;;;;;;5029756;28;20496;-65
2021/09/26 10:21:55;;;;;;;5.32;2.35;;;23.00;67.70;;;;;;5030157;28;20040;-65
2021/09/26 10:24:24;;;;;;;5.65;2.67;;;23.10;66.80;;;;;;5018910;28;20530;-65
2021/09/26 10:26:50;;;;;;;5.35;2.67;;;22.50;68.40;;;;;;5022608;28;20038;-66
2021/09/26 10:29:18;;;;;;;4.55;2.70;;;22.40;69.70;;;;;;5024850;28;20416;-65
2021/09/26 10:31:46;;;;;;;4.25;2.88;;;22.00;69.70;;;;;;5024254;28;20117;-66
2021/09/26 10:34:13;;;;;;;3.60;2.30;;;21.60;70.90;;;;;;5017669;28;20287;-65
2021/09/26 10:36:41;;;;;;;6.38;3.03;;;22.00;71.30;;;;;;5023214;28;20496;-63
2021/09/26 10:39:08;;;;;;;4.22;2.92;;;22.30;71.70;;;;;;5023752;28;20404;-65
2021/09/26 10:41:35;;;;;;;4.53;2.95;;;22.50;69.80;;;;;;5020411;28;20049;-66
2021/09/26 10:44:27;;;;;;;4.32;2.58;;;22.80;68.40;;;;;;5018576;28;20079;-66
2021/09/26 10:47:18;;;;;;;5.57;3.00;;;23.00;68.60;;;;;;5021082;28;20022;-66
2021/09/26 10:49:57;;;;;;;5.30;2.92;;;23.20;67.40;;;;;;5045066;28;20037;-64
2021/09/26 10:52:37;;;;;;;5.93;2.85;;;23.20;66.70;;;;;;5022686;28;20088;-65
2021/09/26 10:55:15;;;;;;;5.18;2.72;;;23.40;68.90;;;;;;5034563;28;20044;-65
2021/09/26 10:57:44;;;;;;;7.53;3.03;;;23.40;68.60;;;;;;5017411;28;20527;-66
2021/09/26 11:00:14;;;;;;;4.03;2.65;;;23.00;68.50;;;;;;5028046;28;20129;-66
2021/09/26 11:02:42;;;;;;;7.00;2.80;;;23.00;68.40;;;;;;5023012;28;20025;-66
2021/09/26 11:05:28;;;;;;;6.03;3.08;;;23.20;68.60;;;;;;5030444;28;20083;-66
2021/09/26 11:07:53;;;;;;;5.40;2.53;;;23.00;68.30;;;;;;5029174;28;20385;-66
2021/09/26 11:10:34;;;;;;;3.83;2.60;;;23.50;69.40;;;;;;5036481;28;20040;-65
2021/09/26 11:13:15;;;;;;;4.68;2.83;;;23.40;68.00;;;;;;5025616;28;20615;-65
2021/09/26 11:16:04;;;;;;;3.72;2.58;;;23.40;69.20;;;;;;5023337;28;20071;-65
2021/09/26 11:18:52;;;;;;;5.35;2.83;;;23.20;67.70;;;;;;5018682;28;20451;-64
2021/09/26 11:21:48;;;;;;;3.70;2.20;;;23.60;67.30;;;;;;5024119;28;20032;-64
2021/09/26 11:24:27;;;;;;;4.40;2.45;;;23.60;68.70;;;;;;5023325;28;20029;-67
2021/09/26 11:27:14;;;;;;;4.60;2.83;;;24.30;67.20;;;;;;5033752;28;20167;-66
2021/09/26 11:29:41;;;;;;;4.88;2.90;;;24.50;62.20;;;;;;5026320;28;20036;-66
2021/09/26 11:32:18;;;;;;;4.85;2.50;;;25.00;63.00;;;;;;5028188;28;20037;-65
2021/09/26 11:34:51;;;;;;;5.40;2.45;;;24.60;64.00;;;;;;5033405;28;20034;-67
2021/09/26 11:37:17;;;;;;;6.10;3.08;;;24.50;64.40;;;;;;5027593;28;20037;-66
2021/09/26 11:39:52;;;;;;;4.32;2.28;;;24.60;64.70;;;;;;5037172;28;20032;-67
2021/09/26 11:42:38;;;;;;;6.47;2.65;;;24.60;60.20;;;;;;5026237;28;20025;-67
2021/09/26 11:45:15;;;;;;;4.90;2.67;;;25.00;59.70;;;;;;5024927;28;20415;-66
2021/09/26 11:47:42;;;;;;;3.75;2.33;;;24.70;58.40;;;;;;5027241;28;20390;-67
2021/09/26 11:50:10;;;;;;;4.53;2.45;;;24.70;59.30;;;;;;5028297;28;20531;-67
2021/09/26 11:52:44;;;;;;;5.43;2.30;;;24.40;59.70;;;;;;5032563;28;20346;-67
2021/09/26 11:55:11;;;;;;;6.97;2.55;;;24.60;60.20;;;;;;5032866;28;20485;-67
2021/09/26 11:57:37;;;;;;;5.30;2.47;;;24.40;62.10;;;;;;5031886;28;20044;-66
2021/09/26 12:00:05;;;;;;;5.45;3.10;;;24.30;62.80;;;;;;5029985;28;20403;-67
2021/09/26 12:02:33;;;;;;;5.20;2.80;;;24.00;61.30;;;;;;5025934;28;20034;-67
2021/09/26 12:05:00;;;;;;;4.50;2.58;;;24.00;62.50;;;;;;5025699;28;20544;-67
2021/09/26 12:07:30;;;;;;;4.15;2.70;;;24.00;62.90;;;;;;5031996;28;20029;-65
2021/09/26 12:09:55;;;;;;;3.47;2.38;;;23.80;62.90;;;;;;5030023;28;20045;-65
2021/09/26 12:12:25;;;;;;;5.93;2.83;;;24.10;64.90;;;;;;5026461;28;20042;-65
2021/09/26 12:15:08;;;;;;;5.55;2.25;;;23.90;63.90;;;;;;5022111;28;20029;-66
2021/09/26 12:17:39;;;;;;;6.72;2.70;;;23.90;63.70;;;;;;5023588;28;20057;-63
2021/09/26 12:20:07;;;;;;;4.13;2.80;;;24.10;65.40;;;;;;5017220;28;20082;-66
2021/09/26 12:22:34;;;;;;;5.65;2.60;;;24.10;63.70;;;;;;5023154;28;20029;-65
2021/09/26 12:25:09;;;;;;;4.10;2.90;;;24.30;64.90;;;;;;5036935;28;20029;-66
2021/09/26 12:27:40;;;;;;;6.90;3.05;;;24.20;64.60;;;;;;5027959;28;20021;-64
2021/09/26 12:30:22;;;;;;;5.22;2.85;;;24.40;62.60;;;;;;5025339;28;20025;-67
2021/09/26 12:32:52;;;;;;;4.10;2.65;;;24.60;62.30;;;;;;5035144;28;20033;-66
2021/09/26 12:35:41;;;;;;;5.10;2.57;;;24.90;62.90;;;;;;5028024;28;20033;-66
2021/09/26 12:38:31;;;;;;;4.88;2.78;;;25.10;63.30;;;;;;5029207;28;20147;-66
2021/09/26 12:41:01;;;;;;;4.17;2.43;;;25.00;61.00;;;;;;5019032;28;20021;-67
2021/09/26 12:43:35;;;;;;;5.50;2.60;;;24.80;60.30;;;;;;5021599;28;20415;-67
2021/09/26 12:46:06;;;;;;;7.88;2.88;;;24.50;62.80;;;;;;5020552;28;20091;-67
2021/09/26 12:48:33;;;;;;;;;;;24.60;61.60;;;;;;5024398;28;20039;-65
2021/09/26 12:51:04;;;;;;;4.35;2.80;;;24.60;63.00;;;;;;5030629;28;20392;-66
2021/09/26 12:53:33;;;;;;;4.72;2.95;;;24.90;61.90;;;;;;5025624;28;20037;-67